createdAt,value
2022-08-16T00:03:07.066Z,97477.84
2022-08-16T00:06:20.507Z,97465.88
2022-08-16T00:09:27.174Z,97467.03
2022-08-16T00:12:35.283Z,97467.22
2022-08-16T00:15:51.121Z,97464.69
2022-08-16T00:19:03.019Z,97466.69
2022-08-16T00:22:13.743Z,97464.38
2022-08-16T00:26:33.860Z,97465.38
2022-08-16T00:28:54.527Z,97467.34
2022-08-16T00:32:07.428Z,97465.72
2022-08-16T00:35:19.105Z,97464.38
2022-08-16T00:38:40.768Z,97466.38
2022-08-16T00:41:49.889Z,97462.38
2022-08-16T00:44:59.743Z,97459.88
2022-08-16T00:48:28.767Z,97465.38
2022-08-16T00:51:39.076Z,97457.72
2022-08-16T00:54:45.347Z,97459.88
2022-08-16T00:57:58.972Z,97464.69
2022-08-16T01:01:08.842Z,97458.03
2022-08-16T01:04:25.768Z,97458.03
2022-08-16T01:07:51.374Z,97467.03
2022-08-16T01:11:02.586Z,97470.00
2022-08-16T01:14:13.637Z,97489.78
2022-08-16T01:17:24.214Z,97491.59
2022-08-16T01:20:35.759Z,97489.78
2022-08-16T01:24:01.496Z,97496.25
2022-08-16T01:27:14.982Z,97490.41
2022-08-16T01:30:26.133Z,97487.94
2022-08-16T01:33:35.878Z,97478.47
2022-08-16T01:36:42.797Z,97479.63
2022-08-16T01:39:53.070Z,97486.91
2022-08-16T01:43:00.351Z,97483.56
2022-08-16T01:46:37.956Z,97483.06
2022-08-16T01:49:45.437Z,97496.84
2022-08-16T01:53:10.046Z,97493.53
2022-08-16T01:56:46.375Z,97496.34
2022-08-16T01:59:57.102Z,97495.50
2022-08-16T02:03:04.465Z,97492.19
2022-08-16T02:06:11.337Z,97497.78
2022-08-16T02:09:19.510Z,97487.47
2022-08-16T02:12:45.839Z,97485.81
2022-08-16T02:15:59.405Z,97491.44
2022-08-16T02:19:15.825Z,97494.28
2022-08-16T02:22:34.197Z,97486.47
2022-08-16T02:25:52.407Z,97485.28
2022-08-16T02:29:04.219Z,97486.25
2022-08-16T02:32:50.148Z,97495.38
2022-08-16T02:35:53.617Z,97497.03
2022-08-16T02:39:06.395Z,97500.47
2022-08-16T02:42:13.169Z,97503.63
2022-08-16T02:45:27.680Z,97496.94
2022-08-16T02:48:36.283Z,97500.56
2022-08-16T02:51:47.052Z,97510.88
2022-08-16T02:54:55.231Z,97502.78
2022-08-16T02:58:03.065Z,97501.09
2022-08-16T03:01:24.287Z,97503.94
2022-08-16T03:04:51.158Z,97493.63
2022-08-16T03:08:01.298Z,97492.25
2022-08-16T03:11:17.881Z,97478.63
2022-08-16T03:14:28.087Z,97485.91
2022-08-16T03:17:53.222Z,97484.25
2022-08-16T03:21:03.055Z,97484.25
2022-08-16T03:24:29.127Z,97486.22
2022-08-16T03:27:41.111Z,97491.84
2022-08-16T03:30:53.066Z,97499.13
2022-08-16T03:34:06.180Z,97497.50
2022-08-16T03:37:13.199Z,97495.81
2022-08-16T03:40:32.795Z,97497.81
2022-08-16T03:43:50.982Z,97494.47
2022-08-16T03:47:01.290Z,97494.63
2022-08-16T03:50:26.037Z,97495.28
2022-08-16T03:53:38.069Z,97499.78
2022-08-16T03:56:56.853Z,97500.09
2022-08-16T04:00:35.155Z,97502.03
2022-08-16T04:03:45.016Z,97499.41
2022-08-16T04:06:54.512Z,97502.03
2022-08-16T04:10:35.520Z,97500.41
2022-08-16T04:14:01.371Z,97511.69
2022-08-16T04:17:01.693Z,97516.53
2022-08-16T04:20:29.595Z,97518.72
2022-08-16T04:23:45.439Z,97510.28
2022-08-16T04:26:53.939Z,97513.31
2022-08-16T04:30:03.813Z,97522.31
2022-08-16T04:33:15.433Z,97522.34
2022-08-16T04:36:23.613Z,97517.75
2022-08-16T04:39:46.182Z,97521.28
2022-08-16T04:42:55.822Z,97516.84
2022-08-16T04:46:05.857Z,97518.53
2022-08-16T04:49:43.735Z,97525.41
2022-08-16T04:52:55.694Z,97532.25
2022-08-16T04:56:11.586Z,97531.47
2022-08-16T04:59:18.617Z,97536.81
2022-08-16T05:02:41.577Z,97534.81
2022-08-16T05:05:59.172Z,97532.00
2022-08-16T05:09:12.674Z,97532.69
2022-08-16T05:12:22.041Z,97534.19
2022-08-16T05:15:38.111Z,97533.91
2022-08-16T05:18:44.677Z,97539.25
2022-08-16T05:21:55.542Z,97533.94
2022-08-16T05:25:09.263Z,97534.59
2022-08-16T05:28:30.948Z,97553.22
2022-08-16T05:31:48.356Z,97544.91
2022-08-16T05:35:00.812Z,97557.84
2022-08-16T05:38:32.286Z,97574.84
2022-08-16T05:41:45.464Z,97573.34
2022-08-16T05:44:55.805Z,97570.50
2022-08-16T05:48:07.418Z,97568.50
2022-08-16T05:51:35.794Z,97575.53
2022-08-16T05:54:58.731Z,97577.81
2022-08-16T05:58:31.633Z,97585.47
2022-08-16T06:01:42.117Z,97585.09
2022-08-16T06:04:48.364Z,97583.72
2022-08-16T06:07:58.273Z,97583.19
2022-08-16T06:11:13.501Z,97586.31
2022-08-16T06:14:23.529Z,97583.66
2022-08-16T06:17:43.375Z,97580.94
2022-08-16T06:21:03.271Z,97587.22
2022-08-16T06:24:54.007Z,97592.84
2022-08-16T06:27:40.926Z,97589.78
2022-08-16T06:30:47.315Z,97596.06
2022-08-16T06:33:59.288Z,97602.69
2022-08-16T06:37:12.622Z,97594.97
2022-08-16T06:40:33.281Z,97593.59
2022-08-16T06:43:40.336Z,97590.16
2022-08-16T06:46:53.785Z,97592.31
2022-08-16T06:50:03.178Z,97593.69
2022-08-16T06:53:24.557Z,97591.63
2022-08-16T06:56:37.570Z,97595.59
2022-08-16T06:59:53.075Z,97594.03
2022-08-16T07:03:26.944Z,97593.41
2022-08-16T07:06:38.348Z,97592.34
2022-08-16T07:09:51.418Z,97599.47
2022-08-16T07:13:03.389Z,97606.94
2022-08-16T07:16:20.468Z,97617.09
2022-08-16T07:20:01.803Z,97614.41
2022-08-16T07:22:59.553Z,97613.13
2022-08-16T07:26:25.406Z,97609.41
2022-08-16T07:29:34.766Z,97602.97
2022-08-16T07:32:42.406Z,97599.56
2022-08-16T07:35:58.176Z,97596.34
2022-08-16T07:39:10.034Z,97592.47
2022-08-16T07:42:20.329Z,97594.03
2022-08-16T07:45:34.331Z,97603.28
2022-08-16T07:48:41.329Z,97594.94
2022-08-16T07:51:56.288Z,97611.38
2022-08-16T07:55:14.106Z,97603.22
2022-08-16T07:58:34.236Z,97604.88
2022-08-16T08:01:44.626Z,97613.16
2022-08-16T08:04:51.857Z,97617.78
2022-08-16T08:07:59.516Z,97616.66
2022-08-16T08:11:13.395Z,97611.97
2022-08-16T08:14:29.637Z,97619.28
2022-08-16T08:17:42.841Z,97616.78
2022-08-16T08:20:59.429Z,97616.41
2022-08-16T08:24:15.558Z,97615.41
2022-08-16T08:27:25.526Z,97608.34
2022-08-16T08:31:00.583Z,97617.72
2022-08-16T08:34:01.119Z,97616.91
2022-08-16T08:37:12.130Z,97622.09
2022-08-16T08:40:19.622Z,97612.19
2022-08-16T08:43:41.637Z,97603.53
2022-08-16T08:46:59.745Z,97626.25
2022-08-16T08:50:11.169Z,97620.16
2022-08-16T08:53:19.465Z,97632.59
2022-08-16T08:56:45.918Z,97632.53
2022-08-16T09:00:31.676Z,97618.19
2022-08-16T09:03:57.433Z,97619.34
2022-08-16T09:07:04.207Z,97615.91
2022-08-16T09:10:20.751Z,97622.34
2022-08-16T09:13:32.892Z,97615.16
2022-08-16T09:17:01.494Z,97621.81
2022-08-16T09:20:10.582Z,97623.66
2022-08-16T09:23:22.361Z,97627.22
2022-08-16T09:26:45.480Z,97623.94
2022-08-16T09:30:00.281Z,97623.13
2022-08-16T09:33:10.413Z,97619.22
2022-08-16T09:36:31.820Z,97619.44
2022-08-16T09:39:41.609Z,97611.63
2022-08-16T09:42:58.695Z,97621.19
2022-08-16T09:46:49.040Z,97624.53
2022-08-16T09:49:37.602Z,97611.78
2022-08-16T09:52:48.025Z,97617.38
2022-08-16T09:55:58.647Z,97616.38
2022-08-16T09:59:08.689Z,97617.00
2022-08-16T10:02:26.302Z,97621.34
2022-08-16T10:05:38.131Z,97623.81
2022-08-16T10:09:04.324Z,97621.19
2022-08-16T10:12:28.281Z,97629.25
2022-08-16T10:15:35.834Z,97635.31
2022-08-16T10:19:01.497Z,97622.31
2022-08-16T10:22:15.383Z,97634.28
2022-08-16T10:27:00.650Z,97638.88
2022-08-16T10:28:50.932Z,97633.50
2022-08-16T10:31:57.249Z,97638.06
2022-08-16T10:35:06.503Z,97634.75
2022-08-16T10:38:27.440Z,97636.81
2022-08-16T10:41:34.941Z,97626.91
2022-08-16T10:44:42.471Z,97618.25
2022-08-16T10:48:02.633Z,97622.00
2022-08-16T10:51:10.190Z,97627.78
2022-08-16T10:54:28.706Z,97612.84
2022-08-16T10:57:36.052Z,97612.03
2022-08-16T11:00:46.146Z,97616.59
2022-08-16T11:03:54.514Z,97614.50
2022-08-16T11:07:08.656Z,97613.44
2022-08-16T11:14:10.859Z,97625.47
2022-08-16T11:17:17.528Z,97625.44
2022-08-16T11:20:41.458Z,97622.69
2022-08-16T11:23:58.290Z,97608.97
2022-08-16T11:27:32.519Z,97613.41
2022-08-16T11:30:38.973Z,97609.59
2022-08-16T11:33:53.867Z,97603.69
2022-08-16T11:37:02.914Z,97599.09
2022-08-16T11:40:14.764Z,97605.09
2022-08-16T11:43:33.849Z,97602.16
2022-08-16T11:46:45.050Z,97614.25
2022-08-16T11:49:53.369Z,97616.16
2022-08-16T11:53:00.397Z,97618.13
2022-08-16T11:56:09.361Z,97625.75
2022-08-16T11:59:19.367Z,97620.94
2022-08-16T12:02:33.027Z,97611.34
2022-08-16T12:05:41.720Z,97613.31
2022-08-16T12:08:50.805Z,97613.59
2022-08-16T12:11:57.927Z,97608.63
2022-08-16T12:15:07.656Z,97616.09
2022-08-16T12:18:20.478Z,97602.50
2022-08-16T12:21:26.818Z,97611.66
2022-08-16T12:24:43.148Z,97626.81
2022-08-16T12:27:50.305Z,97625.81
2022-08-16T12:31:00.526Z,97628.31
2022-08-16T12:34:08.111Z,97618.41
2022-08-16T12:37:15.757Z,97623.81
2022-08-16T12:40:32.903Z,97617.09
2022-08-16T12:43:45.290Z,97623.19
2022-08-16T12:47:06.157Z,97619.41
2022-08-16T12:50:14.926Z,97631.53
2022-08-16T12:53:22.104Z,97626.31
2022-08-16T12:56:31.519Z,97621.25
2022-08-16T12:59:38.588Z,97612.97
2022-08-16T13:02:50.244Z,97611.63
2022-08-16T13:05:56.754Z,97618.66
2022-08-16T13:09:20.314Z,97608.25
2022-08-16T13:12:28.548Z,97612.06
2022-08-16T13:15:36.209Z,97621.66
2022-08-16T13:19:00.562Z,97622.22
2022-08-16T13:22:08.852Z,97620.06
2022-08-16T13:25:28.736Z,97632.97
2022-08-16T13:28:36.035Z,97617.69
2022-08-16T13:31:42.953Z,97617.88
2022-08-16T13:34:52.774Z,97614.19
2022-08-16T13:37:58.965Z,97623.09
2022-08-16T13:41:08.504Z,97624.91
2022-08-16T13:44:15.570Z,97615.28
2022-08-16T13:47:22.521Z,97632.22
2022-08-16T13:50:51.357Z,97624.56
2022-08-16T13:54:03.840Z,97628.69
2022-08-16T13:57:11.586Z,97635.50
2022-08-16T14:00:21.340Z,97621.03
2022-08-16T14:03:28.926Z,97622.94
2022-08-16T14:06:39.843Z,97608.19
2022-08-16T14:09:47.017Z,97618.59
2022-08-16T14:12:57.302Z,97614.03
2022-08-16T14:16:03.456Z,97611.53
2022-08-16T14:19:19.041Z,97595.25
2022-08-16T14:22:35.632Z,97590.47
2022-08-16T14:25:53.576Z,97600.63
2022-08-16T14:29:03.511Z,97600.19
2022-08-16T14:32:13.237Z,97606.84
2022-08-16T14:35:50.232Z,97607.97
2022-08-16T14:39:00.758Z,97618.63
2022-08-16T14:42:10.813Z,97613.81
2022-08-16T14:45:23.587Z,97608.84
2022-08-16T14:48:29.975Z,97611.69
2022-08-16T14:51:36.952Z,97600.75
2022-08-16T14:54:48.392Z,97608.75
2022-08-16T14:57:57.493Z,97610.13
2022-08-16T15:01:04.860Z,97622.53
2022-08-16T15:04:12.321Z,97620.66
2022-08-16T15:07:50.690Z,97618.91
2022-08-16T15:11:00.995Z,97617.63
2022-08-16T15:14:08.028Z,97618.06
2022-08-16T15:17:15.990Z,97619.69
2022-08-16T15:20:26.248Z,97616.41
2022-08-16T15:23:34.655Z,97615.09
2022-08-16T15:26:47.111Z,97606.72
2022-08-16T15:29:54.232Z,97602.53
2022-08-16T15:33:06.452Z,97598.31
2022-08-16T15:36:17.745Z,97607.41
2022-08-16T15:39:31.805Z,97613.63
2022-08-16T15:42:54.041Z,97624.25
2022-08-16T15:46:35.613Z,97630.81
2022-08-16T15:49:46.776Z,97644.69
2022-08-16T15:53:00.389Z,97651.44
2022-08-16T15:56:09.471Z,97644.56
2022-08-16T15:59:20.653Z,97643.28
2022-08-16T16:02:30.842Z,97643.81
2022-08-16T16:05:37.605Z,97645.31
2022-08-16T16:08:44.719Z,97645.16
2022-08-16T16:11:52.043Z,97651.03
2022-08-16T16:15:03.342Z,97648.41
2022-08-16T16:18:10.912Z,97641.97
2022-08-16T16:21:20.321Z,97635.63
2022-08-16T16:24:31.383Z,97637.91
2022-08-16T16:27:38.439Z,97641.94
2022-08-16T16:30:48.070Z,97647.63
2022-08-16T16:33:59.007Z,97649.47
2022-08-16T16:37:05.269Z,97648.50
2022-08-16T16:40:28.900Z,97641.91
2022-08-16T16:43:40.489Z,97641.53
2022-08-16T16:46:56.676Z,97653.44
2022-08-16T16:50:06.705Z,97641.66
2022-08-16T16:53:17.488Z,97642.38
2022-08-16T16:56:31.105Z,97647.56
2022-08-16T16:59:36.628Z,97656.16
2022-08-16T17:02:49.609Z,97655.38
2022-08-16T17:06:03.243Z,97662.72
2022-08-16T17:09:16.047Z,97658.34
2022-08-16T17:12:46.359Z,97663.84
2022-08-16T17:15:52.168Z,97664.00
2022-08-16T17:19:16.195Z,97661.06
2022-08-16T17:22:32.940Z,97657.44
2022-08-16T17:25:40.099Z,97655.69
2022-08-16T17:28:59.413Z,97658.25
2022-08-16T17:32:47.458Z,97651.25
2022-08-16T17:35:45.820Z,97661.69
2022-08-16T17:39:03.179Z,97672.06
2022-08-16T17:42:16.075Z,97670.00
2022-08-16T17:45:23.311Z,97680.34
2022-08-16T17:48:31.299Z,97684.41
2022-08-16T17:51:40.883Z,97681.47
2022-08-16T17:54:47.001Z,97684.09
2022-08-16T17:57:54.382Z,97688.91
2022-08-16T18:01:03.399Z,97695.28
2022-08-16T18:04:10.330Z,97686.69
2022-08-16T18:07:19.091Z,97681.44
2022-08-16T18:10:33.143Z,97682.59
2022-08-16T18:13:43.416Z,97689.53
2022-08-16T18:16:51.221Z,97679.53
2022-08-16T18:19:57.592Z,97681.53
2022-08-16T18:23:12.397Z,97675.91
2022-08-16T18:26:20.941Z,97682.25
2022-08-16T18:29:27.661Z,97677.25
2022-08-16T18:32:42.746Z,97679.03
2022-08-16T18:35:52.105Z,97699.41
2022-08-16T18:39:06.165Z,97690.22
2022-08-16T18:42:17.842Z,97694.88
2022-08-16T18:45:24.047Z,97681.59
2022-08-16T18:48:42.210Z,97691.97
2022-08-16T18:51:49.362Z,97693.13
2022-08-16T18:55:02.524Z,97696.88
2022-08-16T18:58:19.835Z,97703.09
2022-08-16T19:01:26.670Z,97702.94
2022-08-16T19:04:55.075Z,97704.88
2022-08-16T19:07:59.550Z,97703.50
2022-08-16T19:11:14.051Z,97702.94
2022-08-16T19:14:23.708Z,97700.97
2022-08-16T19:17:29.690Z,97699.00
2022-08-16T19:20:37.333Z,97705.19
2022-08-16T19:23:44.628Z,97705.34
2022-08-16T19:26:54.234Z,97709.69
2022-08-16T19:30:03.606Z,97719.91
2022-08-16T19:33:11.581Z,97715.53
2022-08-16T19:36:32.171Z,97712.59
2022-08-16T19:39:42.073Z,97721.19
2022-08-16T19:42:51.314Z,97719.91
2022-08-16T19:45:58.200Z,97736.59
2022-08-16T19:49:04.632Z,97728.91
2022-08-16T19:52:19.156Z,97726.44
2022-08-16T19:55:25.078Z,97725.97
2022-08-16T19:58:34.678Z,97738.69
2022-08-16T20:01:42.634Z,97732.03
2022-08-16T20:04:49.688Z,97742.94
2022-08-16T20:07:56.728Z,97742.63
2022-08-16T20:11:09.228Z,97753.22
2022-08-16T20:14:25.786Z,97750.25
2022-08-16T20:17:33.019Z,97751.09
2022-08-16T20:20:40.731Z,97757.91
2022-08-16T20:23:47.805Z,97767.97
2022-08-16T20:26:54.147Z,97761.34
2022-08-16T20:30:10.710Z,97751.81
2022-08-16T20:33:18.060Z,97758.72
2022-08-16T20:36:24.945Z,97757.41
2022-08-16T20:39:30.921Z,97764.78
2022-08-16T20:42:37.753Z,97764.78
2022-08-16T20:45:49.109Z,97770.75
2022-08-16T20:48:56.134Z,97773.78
2022-08-16T20:52:03.382Z,97767.97
2022-08-16T20:55:11.209Z,97766.63
2022-08-16T20:58:17.277Z,97771.53
2022-08-16T21:01:27.351Z,97772.22
2022-08-16T21:04:52.177Z,97770.94
2022-08-16T21:07:59.202Z,97776.28
2022-08-16T21:11:07.763Z,97781.63
2022-08-16T21:14:14.643Z,97776.28
2022-08-16T21:17:23.917Z,97781.63
2022-08-16T21:20:30.876Z,97774.94
2022-08-16T21:23:37.182Z,97772.81
2022-08-16T21:26:47.437Z,97779.69
2022-08-16T21:30:03.609Z,97787.75
2022-08-16T21:33:15.621Z,97782.09
2022-08-16T21:36:35.067Z,97780.13
2022-08-16T21:39:43.290Z,97777.13
2022-08-16T21:42:49.371Z,97782.81
2022-08-16T21:45:57.281Z,97786.84
2022-08-16T21:49:06.970Z,97781.84
2022-08-16T21:52:22.685Z,97781.38
2022-08-16T21:55:33.493Z,97775.03
2022-08-16T21:58:40.790Z,97775.38
2022-08-16T22:01:49.815Z,97780.06
2022-08-16T22:05:00.622Z,97776.09
2022-08-16T22:08:08.583Z,97777.59
2022-08-16T22:11:15.397Z,97782.44
2022-08-16T22:14:21.590Z,97787.13
2022-08-16T22:17:28.381Z,97781.97
2022-08-16T22:20:38.555Z,97783.94
2022-08-16T22:23:45.302Z,97782.31
2022-08-16T22:27:00.985Z,97783.47
2022-08-16T22:30:09.705Z,97785.31
2022-08-16T22:33:19.259Z,97785.97
2022-08-16T22:36:29.530Z,97790.97
2022-08-16T22:39:35.874Z,97783.94
2022-08-16T22:42:50.779Z,97776.31
2022-08-16T22:45:57.411Z,97776.00
2022-08-16T22:49:04.417Z,97773.66
2022-08-16T22:52:13.576Z,97772.50
2022-08-16T22:55:41.983Z,97771.53
2022-08-16T22:58:48.763Z,97770.38
2022-08-16T23:01:56.025Z,97763.69
2022-08-16T23:05:03.233Z,97766.69
2022-08-16T23:08:15.884Z,97767.06
2022-08-16T23:11:38.379Z,97760.34
2022-08-16T23:14:45.423Z,97752.34
2022-08-16T23:17:52.284Z,97746.34
2022-08-16T23:21:03.698Z,97742.53
2022-08-16T23:24:13.338Z,97739.19
2022-08-16T23:27:20.443Z,97735.38
2022-08-16T23:30:28.048Z,97742.72
2022-08-16T23:33:35.283Z,97737.72
2022-08-16T23:36:41.234Z,97739.72
2022-08-16T23:39:54.542Z,97732.72
2022-08-16T23:43:06.698Z,97739.41
2022-08-16T23:46:17.167Z,97732.91
2022-08-16T23:49:58.906Z,97736.03
2022-08-16T23:53:07.340Z,97740.72
2022-08-16T23:56:17.744Z,97742.38
2022-08-16T23:59:24.492Z,97735.75
